Time;durP1;ratioP1;P1;durP2;ratioP2;P2;SDS_P1;SDS_P2;PMS_P1;PMS_P2;Temp;Humidity;BMP_temperature;BMP_pressure;BME280_temperature;BME280_humidity;BME280_pressure;Samples;Min_cycle;Max_cycle;Signal;HPM_P1;HPM_P2
2023/01/04 00:01:00;;;;;;;28.23;12.10;;;;;;;3.73;71.37;100420.09;5138599;28;20053;-74
2023/01/04 00:03:51;;;;;;;20.85;12.35;;;;;;;3.74;71.17;100417.41;5133588;28;20117;-72
2023/01/04 00:06:41;;;;;;;22.15;12.63;;;;;;;3.67;71.58;100418.56;5139112;28;20105;-71
2023/01/04 00:09:32;;;;;;;24.75;12.98;;;;;;;3.63;70.82;100414.38;5139935;28;20082;-73
2023/01/04 00:12:22;;;;;;;22.65;13.10;;;;;;;3.56;70.97;100401.59;5137748;28;20074;-73
2023/01/04 00:15:12;;;;;;;21.98;12.48;;;;;;;3.73;71.71;100409.59;5138891;28;20133;-72
2023/01/04 00:18:02;;;;;;;29.92;13.50;;;;;;;3.83;70.97;100396.94;5140387;28;20059;-73
2023/01/04 00:20:52;;;;;;;26.13;13.95;;;;;;;3.58;71.90;100403.25;5140325;28;20054;-74
2023/01/04 00:23:45;;;;;;;24.52;13.13;;;;;;;3.67;71.56;100396.72;5142150;28;20043;-71
2023/01/04 00:26:35;;;;;;;24.10;12.20;;;;;;;3.73;71.72;100380.75;5141387;28;20057;-73
2023/01/04 00:29:26;;;;;;;22.48;11.88;;;;;;;3.85;74.29;100364.47;5136810;28;20134;-74
2023/01/04 00:32:16;;;;;;;20.17;11.65;;;;;;;3.83;75.87;100344.47;5140780;28;20047;-74
2023/01/04 00:35:06;;;;;;;27.58;13.30;;;;;;;3.88;76.05;100326.75;5140949;28;20141;-74
2023/01/04 00:37:56;;;;;;;25.90;13.80;;;;;;;4.06;75.99;100330.31;5138887;28;20057;-74
2023/01/04 00:40:46;;;;;;;26.58;14.05;;;;;;;3.93;77.23;100348.38;5141124;28;20066;-73
2023/01/04 00:43:37;;;;;;;30.83;14.82;;;;;;;4.04;75.64;100333.00;5138805;28;20742;-73
2023/01/04 00:46:28;;;;;;;28.05;13.88;;;;;;;4.28;74.94;100341.53;5138240;28;20186;-73
2023/01/04 00:49:18;;;;;;;27.83;14.38;;;;;;;4.09;75.72;100331.03;5140974;28;20572;-73
2023/01/04 00:52:08;;;;;;;22.20;13.82;;;;;;;4.32;75.24;100335.22;5139568;28;20409;-74
2023/01/04 00:54:59;;;;;;;23.67;12.70;;;;;;;4.24;76.12;100334.72;5140015;28;20173;-73
2023/01/04 00:57:49;;;;;;;23.35;12.48;;;;;;;4.46;74.56;100332.78;5140574;28;20441;-74
2023/01/04 01:00:39;;;;;;;22.10;12.02;;;;;;;4.67;74.01;100336.19;5140332;28;20047;-74
2023/01/04 01:03:29;;;;;;;20.95;11.98;;;;;;;4.73;72.34;100337.63;5138932;28;20053;-73
2023/01/04 01:06:28;;;;;;;19.67;11.65;;;;;;;5.01;72.33;100344.19;5141041;28;20065;-74
2023/01/04 01:09:21;;;;;;;23.60;11.57;;;;;;;5.13;70.45;100341.81;5141124;28;20070;-74
2023/01/04 01:12:12;;;;;;;21.50;11.77;;;;;;;4.84;71.92;100345.88;5138891;28;20611;-73
2023/01/04 01:15:03;;;;;;;19.73;10.93;;;;;;;4.97;72.66;100348.75;5140726;28;20139;-74
2023/01/04 01:17:53;;;;;;;22.08;11.43;;;;;;;4.93;72.04;100349.81;5139152;28;20066;-74
2023/01/04 01:20:44;;;;;;;20.48;10.88;;;;;;;4.99;71.51;100351.31;5139863;28;20051;-73
2023/01/04 01:23:34;;;;;;;21.23;11.35;;;;;;;4.94;70.69;100331.34;5124839;28;20054;-74
2023/01/04 01:26:24;;;;;;;18.20;10.93;;;;;;;5.08;71.14;100361.38;5139803;28;20094;-74
2023/01/04 01:29:15;;;;;;;19.52;10.77;;;;;;;4.62;72.14;100356.56;5141493;28;20193;-75
2023/01/04 01:32:05;;;;;;;22.45;11.68;;;;;;;4.31;72.83;100333.50;5137551;28;20058;-73
2023/01/04 01:34:55;;;;;;;21.63;11.18;;;;;;;4.57;72.50;100363.81;5139760;28;20050;-73
2023/01/04 01:37:45;;;;;;;18.23;10.57;;;;;;;5.05;71.08;100372.88;5140964;28;20055;-74
2023/01/04 01:40:40;;;;;;;18.45;10.18;;;;;;;4.81;69.90;100367.03;5141276;28;20201;-73
2023/01/04 01:43:48;;;;;;;16.98;10.30;;;;;;;4.72;69.36;100370.09;5141035;28;20426;-74
2023/01/04 01:46:56;;;;;;;19.02;9.95;;;;;;;4.57;68.72;100374.31;5141025;28;20469;-73
2023/01/04 01:49:49;;;;;;;16.88;10.52;;;;;;;4.27;69.17;100366.06;5141643;28;20197;-74
2023/01/04 01:52:40;;;;;;;18.73;9.43;;;;;;;4.22;68.80;100371.53;5138867;28;20070;-74
2023/01/04 01:55:33;;;;;;;15.48;9.02;;;;;;;4.08;68.79;100349.47;5141781;28;20061;-74
2023/01/04 01:58:30;;;;;;;16.75;9.50;;;;;;;4.12;69.32;100338.75;5144977;28;20061;-74
2023/01/04 02:01:20;;;;;;;18.30;9.57;;;;;;;4.32;70.63;100352.75;5143654;28;20051;-74
2023/01/04 02:04:13;;;;;;;17.08;9.30;;;;;;;4.50;70.92;100333.47;5143223;28;20090;-74
2023/01/04 02:07:04;;;;;;;15.23;9.38;;;;;;;4.68;70.64;100343.13;5145032;28;20059;-74
2023/01/04 02:09:56;;;;;;;16.95;10.13;;;;;;;4.50;71.68;100354.50;5140587;28;20067;-74
2023/01/04 02:12:49;;;;;;;18.55;9.30;;;;;;;4.81;71.38;100356.53;5144568;28;20054;-74
2023/01/04 02:15:59;;;;;;;16.63;9.35;;;;;;;4.85;70.84;100336.22;5125020;29;20055;-73
2023/01/04 02:19:04;;;;;;;18.73;9.82;;;;;;;4.77;71.11;100325.19;5132089;28;20055;-74
2023/01/04 02:22:21;;;;;;;23.45;10.95;;;;;;;4.84;71.16;100334.53;5140450;28;20055;-73
2023/01/04 02:25:26;;;;;;;18.00;9.38;;;;;;;5.02;70.76;100330.97;5143012;28;20061;-73
2023/01/04 02:28:27;;;;;;;18.00;10.00;;;;;;;5.04;70.29;100336.16;5143473;28;20131;-71
2023/01/04 02:31:36;;;;;;;18.15;8.98;;;;;;;5.13;69.86;100331.31;5144328;28;20129;-74
2023/01/04 02:34:44;;;;;;;12.90;8.20;;;;;;;5.03;69.84;100314.25;5143618;28;20497;-73
2023/01/04 02:37:40;;;;;;;16.42;8.80;;;;;;;4.81;70.57;100329.41;5144641;28;20062;-73
2023/01/04 02:40:39;;;;;;;14.45;8.55;;;;;;;5.01;70.69;100318.75;5143514;28;20119;-73
2023/01/04 02:47:10;;;;;;;13.52;8.02;;;;;;;5.05;70.92;100312.41;5141332;28;20154;-73
2023/01/04 02:53:13;;;;;;;13.65;7.90;;;;;;;5.09;69.76;100290.31;5143253;28;20493;-73
2023/01/04 02:56:38;;;;;;;15.20;8.18;;;;;;;5.26;69.27;100301.75;5142826;28;20101;-73
2023/01/04 02:59:47;;;;;;;13.88;7.45;;;;;;;5.21;69.07;100295.88;5144065;28;20105;-71
2023/01/04 03:06:24;;;;;;;14.30;8.10;;;;;;;4.72;68.64;100281.63;5156145;28;20665;-73
2023/01/04 03:09:22;;;;;;;12.23;7.90;;;;;;;4.56;68.17;100279.81;5142894;28;20536;-74
2023/01/04 03:12:31;;;;;;;15.35;7.40;;;;;;;4.35;69.01;100256.28;5143150;28;20043;-73
2023/01/04 03:15:26;;;;;;;14.30;7.20;;;;;;;4.15;72.04;100265.13;5143203;28;20062;-73
2023/01/04 03:18:24;;;;;;;12.45;6.95;;;;;;;4.08;72.55;100265.47;5142490;28;20057;-73
2023/01/04 03:21:17;;;;;;;12.95;7.65;;;;;;;4.34;72.11;100266.84;5141963;28;20069;-75
2023/01/04 03:37:08;;;;;;;15.15;7.47;;;;;;;4.54;68.90;100260.69;5141277;28;20053;-75
2023/01/04 03:50:12;;;;;;;12.88;7.10;;;;;;;4.77;69.78;100255.13;5142035;28;20423;-73
2023/01/04 03:53:03;;;;;;;12.90;7.60;;;;;;;4.66;70.10;100218.88;5141379;28;20371;-73
2023/01/04 03:55:57;;;;;;;17.80;7.82;;;;;;;4.82;69.64;100239.13;5141946;28;20455;-74
2023/01/04 03:58:48;;;;;;;12.82;7.43;;;;;;;4.80;69.49;100235.72;5139487;28;20549;-73
2023/01/04 04:01:41;;;;;;;19.63;8.70;;;;;;;4.64;69.78;100228.63;5142266;28;20512;-74
2023/01/04 04:10:55;;;;;;;14.20;8.48;;;;;;;4.27;69.32;100210.31;5140067;28;20630;-74
2023/01/04 04:13:46;;;;;;;14.25;8.40;;;;;;;4.42;70.05;100227.97;5141326;28;20057;-74
2023/01/04 04:16:37;;;;;;;16.42;7.95;;;;;;;4.55;69.98;100229.06;5142995;28;20436;-73
2023/01/04 04:19:27;;;;;;;18.10;8.38;;;;;;;4.58;70.23;100218.41;5123181;29;20517;-72
2023/01/04 04:22:17;;;;;;;14.45;8.35;;;;;;;4.69;69.88;100237.09;5153158;28;20054;-72
2023/01/04 04:25:07;;;;;;;13.60;8.05;;;;;;;4.51;69.96;100213.53;5143201;28;20058;-72
2023/01/04 04:27:58;;;;;;;15.15;8.52;;;;;;;4.21;70.66;100206.22;5142768;28;20053;-72
2023/01/04 04:30:48;;;;;;;13.93;7.72;;;;;;;4.28;69.79;100210.25;5142747;28;20086;-71
2023/01/04 04:33:39;;;;;;;16.35;9.07;;;;;;;4.27;70.95;100215.56;5142628;28;20053;-73
2023/01/04 04:36:29;;;;;;;13.98;8.75;;;;;;;4.43;69.76;100206.88;5142016;28;20101;-72
2023/01/04 04:39:19;;;;;;;12.95;7.82;;;;;;;4.77;70.01;100213.09;5142728;28;20651;-72
2023/01/04 04:42:09;;;;;;;17.20;8.68;;;;;;;4.70;70.04;100195.91;5141235;28;20544;-72
2023/01/04 04:44:59;;;;;;;12.27;7.75;;;;;;;4.97;70.13;100198.06;5142319;28;20094;-73
2023/01/04 04:47:49;;;;;;;19.55;8.50;;;;;;;5.14;70.22;100200.69;5122650;29;20125;-73
2023/01/04 04:50:39;;;;;;;19.27;8.60;;;;;;;5.28;69.64;100202.59;5141664;28;20054;-73
2023/01/04 04:53:29;;;;;;;14.05;7.82;;;;;;;5.33;70.42;100184.78;5142453;28;20539;-72
2023/01/04 04:56:19;;;;;;;13.35;7.50;;;;;;;5.30;70.37;100180.56;5142426;28;20061;-73
2023/01/04 04:59:09;;;;;;;16.73;7.82;;;;;;;5.45;69.77;100172.78;5141841;28;20105;-73
2023/01/04 05:01:59;;;;;;;12.88;7.63;;;;;;;5.63;69.07;100177.91;5141731;28;20077;-73
2023/01/04 05:04:50;;;;;;;12.90;7.22;;;;;;;5.85;68.08;100163.53;5142117;28;20137;-72
2023/01/04 05:07:40;;;;;;;13.93;7.25;;;;;;;5.89;68.01;100194.03;5122409;29;20062;-73
2023/01/04 05:10:29;;;;;;;12.73;7.22;;;;;;;6.07;68.15;100197.47;5124631;28;20051;-72
2023/01/04 05:13:19;;;;;;;11.38;6.55;;;;;;;6.04;67.70;100180.03;5141921;28;20057;-73
2023/01/04 05:16:09;;;;;;;14.10;6.78;;;;;;;5.88;67.48;100189.69;5140685;28;20082;-73
2023/01/04 05:18:59;;;;;;;10.13;6.30;;;;;;;6.14;67.81;100180.38;5141046;28;20050;-70
2023/01/04 05:21:49;;;;;;;10.10;6.13;;;;;;;6.22;66.56;100180.78;5141049;28;20059;-72
2023/01/04 05:24:40;;;;;;;11.10;6.35;;;;;;;6.07;67.99;100179.88;5145011;28;20054;-72
2023/01/04 05:27:30;;;;;;;13.48;6.38;;;;;;;5.97;68.00;100186.59;5145057;28;20061;-72
2023/01/04 05:33:31;;;;;;;11.60;5.68;;;;;;;6.07;67.77;100179.88;5145978;28;20427;-72
2023/01/04 05:36:21;;;;;;;9.85;5.20;;;;;;;6.08;67.49;100170.19;5142399;28;20113;-72
2023/01/04 05:39:11;;;;;;;9.10;5.35;;;;;;;6.05;68.31;100175.63;5145737;28;20049;-71
2023/01/04 05:45:10;;;;;;;10.27;5.22;;;;;;;6.19;68.49;100174.84;5126048;29;20070;-73
2023/01/04 05:48:01;;;;;;;8.88;4.78;;;;;;;5.69;68.99;100171.44;5124767;29;20055;-72
2023/01/04 05:50:52;;;;;;;10.40;5.30;;;;;;;6.15;67.42;100150.47;5136965;28;20046;-71
2023/01/04 05:53:42;;;;;;;10.05;5.28;;;;;;;6.11;68.43;100162.13;5139809;28;20125;-71
2023/01/04 05:56:32;;;;;;;9.25;4.38;;;;;;;6.21;68.09;100160.66;5138386;28;20059;-72
2023/01/04 05:59:23;;;;;;;8.75;5.55;;;;;;;5.83;68.78;100168.06;5125901;29;20538;-72
2023/01/04 06:02:16;;;;;;;11.02;5.13;;;;;;;6.05;68.67;100171.19;5138548;28;20055;-72
2023/01/04 06:05:08;;;;;;;;;;;;;;;5.86;69.53;100154.69;5138978;28;20054;-72
2023/01/04 06:07:59;;;;;;;8.73;4.60;;;;;;;5.88;69.70;100153.69;5141210;28;19929;-71
2023/01/04 06:10:53;;;;;;;8.07;4.55;;;;;;;6.07;68.29;100137.75;5145775;28;20054;-72
2023/01/04 06:13:43;;;;;;;6.95;4.55;;;;;;;6.01;68.61;100137.25;5145516;28;20110;-72
2023/01/04 06:16:33;;;;;;;7.93;4.10;;;;;;;6.09;68.83;100151.69;5144514;28;20046;-72
2023/01/04 06:19:23;;;;;;;8.10;4.40;;;;;;;6.19;68.88;100148.50;5149433;28;20054;-71
2023/01/04 06:22:13;;;;;;;7.55;4.32;;;;;;;6.01;69.54;100146.00;5143253;28;20098;-71
2023/01/04 06:25:04;;;;;;;6.80;3.92;;;;;;;6.03;69.19;100130.13;5144161;28;20597;-71
2023/01/04 06:27:54;;;;;;;10.13;3.95;;;;;;;6.25;69.31;100148.16;5144317;28;20058;-71
2023/01/04 06:30:44;;;;;;;6.28;3.95;;;;;;;6.63;67.89;100151.22;5143633;28;20524;-73
2023/01/04 06:33:34;;;;;;;8.10;4.40;;;;;;;6.71;67.33;100156.88;5142834;28;20058;-72
2023/01/04 06:36:25;;;;;;;6.57;3.70;;;;;;;6.83;67.51;100148.22;5142656;28;20304;-73
2023/01/04 06:39:15;;;;;;;7.82;4.35;;;;;;;6.78;67.06;100126.56;5141674;28;20054;-71
2023/01/04 06:42:43;;;;;;;6.97;4.20;;;;;;;6.84;67.38;100143.81;5141209;28;20218;-72
2023/01/04 06:45:16;;;;;;;8.80;4.32;;;;;;;6.67;68.50;100138.69;5143698;28;20465;-72
2023/01/04 06:48:06;;;;;;;7.53;4.47;;;;;;;6.27;69.28;100127.84;5141566;28;20055;-71
2023/01/04 06:50:58;;;;;;;7.35;4.18;;;;;;;6.60;68.54;100135.59;5142782;28;20046;-71
2023/01/04 06:53:49;;;;;;;7.15;3.55;;;;;;;6.45;69.12;100144.38;5142658;28;20621;-72
2023/01/04 06:56:39;;;;;;;7.35;4.38;;;;;;;6.56;68.92;100141.97;5142439;28;20065;-71
2023/01/04 06:59:29;;;;;;;7.50;4.15;;;;;;;6.61;68.70;100124.09;5143332;28;20055;-71
2023/01/04 07:02:20;;;;;;;7.20;3.38;;;;;;;6.28;69.32;100105.84;5143710;28;20094;-70
2023/01/04 07:05:10;;;;;;;5.20;3.42;;;;;;;6.64;69.66;100120.44;5143449;28;20054;-71
2023/01/04 07:08:04;;;;;;;6.97;3.78;;;;;;;6.76;67.58;100115.28;5144488;28;20506;-71
2023/01/04 07:10:57;;;;;;;5.63;3.33;;;;;;;7.03;67.99;100131.22;5144233;28;20701;-72
2023/01/04 07:13:48;;;;;;;4.50;3.13;;;;;;;6.88;67.41;100131.28;5142437;28;20129;-72
2023/01/04 07:16:37;;;;;;;8.10;3.65;;;;;;;6.85;69.11;100126.19;5143109;28;20576;-72
2023/01/04 07:19:28;;;;;;;7.75;3.50;;;;;;;6.98;68.39;100132.44;5143686;28;20054;-72
2023/01/04 07:22:21;;;;;;;4.85;3.47;;;;;;;7.14;67.11;100138.47;5143845;28;20065;-72
2023/01/04 07:25:11;;;;;;;5.40;3.30;;;;;;;7.43;66.58;100138.47;5126616;28;20137;-71
2023/01/04 07:28:02;;;;;;;5.93;3.40;;;;;;;7.27;66.52;100130.66;5144006;28;20575;-71
2023/01/04 07:30:52;;;;;;;6.43;2.83;;;;;;;6.92;67.38;100095.88;5143151;28;20140;-71
2023/01/04 07:33:42;;;;;;;4.85;3.17;;;;;;;7.16;68.20;100133.94;5141970;28;20058;-68
2023/01/04 07:36:33;;;;;;;4.60;3.08;;;;;;;7.25;68.12;100135.16;5139345;28;20054;-71
2023/01/04 07:39:22;;;;;;;6.07;3.28;;;;;;;7.11;68.84;100128.09;5142366;28;20047;-70
2023/01/04 07:42:13;;;;;;;7.53;3.65;;;;;;;7.04;69.55;100130.25;5141727;28;20553;-71
2023/01/04 07:45:04;;;;;;;5.95;3.05;;;;;;;7.18;69.03;100131.22;5140860;28;20079;-70
2023/01/04 07:47:56;;;;;;;5.28;3.38;;;;;;;6.84;70.67;100130.63;5138420;28;20050;-70
2023/01/04 07:50:46;;;;;;;6.07;3.30;;;;;;;6.86;71.16;100127.91;5139491;28;20133;-70
2023/01/04 07:53:37;;;;;;;8.25;3.83;;;;;;;6.85;70.77;100124.41;5142211;28;20049;-69
2023/01/04 07:56:27;;;;;;;9.52;4.03;;;;;;;6.34;72.34;100108.13;5141834;28;20161;-71
2023/01/04 07:59:19;;;;;;;5.55;3.55;;;;;;;6.72;71.38;100118.16;5139369;28;20066;-69
2023/01/04 08:02:11;;;;;;;8.32;4.50;;;;;;;6.64;71.81;100107.25;5154555;28;20145;-70
2023/01/04 08:05:01;;;;;;;9.13;4.53;;;;;;;6.13;72.83;100065.47;5139593;28;20189;-75
2023/01/04 08:07:52;;;;;;;5.63;3.60;;;;;;;6.11;74.69;100099.75;5140610;28;20057;-71
2023/01/04 08:10:42;;;;;;;7.05;3.83;;;;;;;6.30;74.23;100096.06;5146069;28;20473;-72
2023/01/04 08:13:32;;;;;;;8.98;4.57;;;;;;;6.15;74.40;100078.53;5141373;28;20445;-71
2023/01/04 08:16:30;;;;;;;27.48;11.60;;;;;;;6.27;74.03;100112.06;5140257;28;20665;-71
2023/01/04 08:19:21;;;;;;;27.73;10.27;;;;;;;6.61;73.42;100095.09;5140701;28;20058;-71
2023/01/04 08:22:12;;;;;;;11.50;4.95;;;;;;;6.44;73.60;100100.53;5138051;28;20510;-72
2023/01/04 08:25:04;;;;;;;9.63;4.40;;;;;;;6.43;72.83;100104.97;5141290;28;20072;-72
2023/01/04 08:27:55;;;;;;;8.18;4.28;;;;;;;6.47;73.29;100074.84;5140916;28;20057;-73
2023/01/04 08:30:45;;;;;;;7.38;4.38;;;;;;;6.70;72.37;100064.72;5139424;28;20054;-73
2023/01/04 08:33:37;;;;;;;7.72;3.83;;;;;;;7.22;70.53;100098.44;5138876;28;20050;-71
2023/01/04 08:36:30;;;;;;;7.95;3.83;;;;;;;6.91;72.26;100097.66;5139104;28;20096;-72
2023/01/04 08:39:21;;;;;;;7.43;3.70;;;;;;;6.75;73.00;100079.28;5140855;28;20102;-73
2023/01/04 08:42:11;;;;;;;5.88;3.67;;;;;;;6.86;72.60;100083.09;5138633;28;20141;-70
2023/01/04 08:45:16;;;;;;;7.53;3.55;;;;;;;6.90;72.55;100076.69;5137062;28;20051;-74
2023/01/04 08:48:06;;;;;;;16.77;7.55;;;;;;;6.91;73.22;100075.72;5136548;28;20057;-73
2023/01/04 08:51:03;;;;;;;8.43;3.30;;;;;;;6.87;72.05;100050.50;5138902;28;20047;-73
2023/01/04 08:53:53;;;;;;;6.35;3.20;;;;;;;7.13;71.47;100067.34;5141344;28;20073;-73
2023/01/04 08:56:43;;;;;;;10.48;3.78;;;;;;;7.10;71.91;100063.13;5139157;28;20062;-71
2023/01/04 08:59:33;;;;;;;10.80;3.55;;;;;;;6.94;71.87;100057.94;5138079;28;20717;-74
2023/01/04 09:02:25;;;;;;;7.68;3.33;;;;;;;7.13;71.31;100067.34;5139112;28;20047;-74
2023/01/04 09:05:16;;;;;;;7.68;3.20;;;;;;;7.40;69.66;100065.63;5136501;28;20624;-73
2023/01/04 09:08:12;;;;;;;8.80;3.40;;;;;;;7.33;70.00;100085.41;5136990;28;20050;-72
2023/01/04 09:11:26;;;;;;;9.77;3.53;;;;;;;7.51;69.85;100065.75;5137264;28;20062;-73
2023/01/04 09:14:16;;;;;;;7.38;2.65;;;;;;;7.50;70.08;100071.16;5127288;28;20057;-73
2023/01/04 09:17:06;;;;;;;5.82;2.67;;;;;;;7.54;69.52;100059.44;5115070;28;20593;-72
2023/01/04 09:19:56;;;;;;;7.30;2.92;;;;;;;7.60;70.55;100061.69;5115806;28;20055;-71
2023/01/04 09:22:46;;;;;;;4.32;2.83;;;;;;;7.87;69.24;100060.84;5120065;28;20077;-71
2023/01/04 09:25:40;;;;;;;4.35;2.35;;;;;;;7.88;68.75;100066.06;5117167;28;20170;-74
2023/01/04 09:28:30;;;;;;;5.43;2.57;;;;;;;8.30;67.56;100066.78;5114966;28;20050;-71
2023/01/04 09:31:23;;;;;;;12.48;3.92;;;;;;;8.50;65.99;100054.03;5116961;28;20202;-71
2023/01/04 09:34:13;;;;;;;7.45;2.88;;;;;;;8.93;64.82;100057.22;5116766;28;20979;-73
2023/01/04 09:37:06;;;;;;;6.47;2.40;;;;;;;8.05;66.33;100032.41;5112692;28;20083;-72
2023/01/04 09:39:56;;;;;;;4.85;2.10;;;;;;;8.56;65.37;100057.13;5126613;28;20095;-69
2023/01/04 09:42:48;;;;;;;4.43;1.73;;;;;;;8.89;64.57;100066.31;5117135;28;20062;-70
2023/01/04 09:46:05;;;;;;;6.47;2.33;;;;;;;8.80;65.63;100065.16;5126776;28;20053;-69
2023/01/04 09:49:10;;;;;;;2.05;1.08;;;;;;;8.54;64.93;100044.94;5126438;28;20109;-74
2023/01/04 09:52:09;;;;;;;3.65;0.65;;;;;;;9.07;62.73;100041.22;5115595;28;20059;-69
2023/01/04 09:55:02;;;;;;;2.60;0.88;;;;;;;9.27;63.00;100045.09;5135461;28;20133;-70
2023/01/04 09:58:18;;;;;;;1.42;0.70;;;;;;;9.36;61.82;100041.78;5129145;28;20069;-71
2023/01/04 10:01:22;;;;;;;6.55;1.08;;;;;;;9.45;61.87;100018.25;5129909;28;20055;-69
2023/01/04 10:04:25;;;;;;;3.15;0.77;;;;;;;9.54;61.25;100023.72;5149325;28;20552;-72
2023/01/04 10:07:25;;;;;;;4.82;1.10;;;;;;;9.30;61.83;99991.94;5137325;28;20058;-70
2023/01/04 10:10:18;;;;;;;2.75;0.70;;;;;;;9.55;61.66;100006.88;5140326;28;20169;-72
2023/01/04 10:13:21;;;;;;;3.83;0.90;;;;;;;9.64;60.99;100002.72;5143880;28;20112;-70
2023/01/04 10:16:27;;;;;;;5.78;1.88;;;;;;;9.78;60.84;99991.09;5150739;28;20057;-72
2023/01/04 10:19:46;;;;;;;1.48;0.57;;;;;;;9.60;59.89;99999.47;5163801;28;20085;-71
2023/01/04 10:23:19;;;;;;;1.58;0.60;;;;;;;9.49;61.38;100001.19;5163735;28;20077;-72
2023/01/04 10:26:11;;;;;;;1.45;0.77;;;;;;;9.41;62.04;100002.59;5144399;28;20181;-70
2023/01/04 10:29:32;;;;;;;3.92;0.98;;;;;;;9.72;61.27;100002.97;5143559;28;20065;-70
2023/01/04 10:32:34;;;;;;;3.30;0.90;;;;;;;9.82;60.41;99988.09;5123583;28;20058;-72
2023/01/04 10:35:26;;;;;;;1.83;0.70;;;;;;;9.94;61.39;99980.22;5141501;28;20053;-71
2023/01/04 10:38:21;;;;;;;3.58;1.50;;;;;;;10.39;59.65;99978.50;5142436;28;20165;-71
2023/01/04 10:41:20;;;;;;;2.95;0.70;;;;;;;10.27;60.25;99979.47;5141748;28;20050;-72
2023/01/04 10:44:24;;;;;;;2.28;0.80;;;;;;;10.08;60.83;99974.69;5144424;28;20177;-71
2023/01/04 10:47:24;;;;;;;4.25;0.70;;;;;;;9.92;60.44;99972.34;5144018;28;20065;-72
2023/01/04 10:50:45;;;;;;;6.15;0.70;;;;;;;10.11;60.83;99961.22;5142913;28;20308;-70
2023/01/04 10:53:46;;;;;;;1.70;0.68;;;;;;;10.25;59.61;99966.28;5142906;28;20055;-72
2023/01/04 10:56:52;;;;;;;2.30;0.60;;;;;;;10.19;61.20;99955.31;5143178;28;20057;-71
2023/01/04 10:59:51;;;;;;;1.77;0.60;;;;;;;10.38;59.55;99952.13;5141897;28;20548;-71
2023/01/04 11:02:46;;;;;;;6.38;0.93;;;;;;;10.37;59.68;99930.09;5141641;28;20429;-71
2023/01/04 11:05:44;;;;;;;3.63;0.75;;;;;;;10.46;60.42;99939.97;5142741;28;20569;-71
2023/01/04 11:09:03;;;;;;;4.20;0.70;;;;;;;10.89;59.69;99938.38;5143864;28;20193;-71
2023/01/04 11:11:56;;;;;;;1.17;0.60;;;;;;;10.46;60.49;99933.81;5142998;28;20113;-73
2023/01/04 11:14:46;;;;;;;1.65;0.90;;;;;;;10.85;58.26;99923.66;5143023;28;20061;-72
2023/01/04 11:17:36;;;;;;;1.30;0.63;;;;;;;10.81;59.12;99913.31;5143879;28;20117;-71
2023/01/04 11:20:26;;;;;;;2.83;0.57;;;;;;;10.59;59.79;99926.56;5158942;28;20400;-71
2023/01/04 11:23:19;;;;;;;3.97;0.75;;;;;;;10.72;59.64;99916.69;5162683;28;20058;-70
2023/01/04 11:26:23;;;;;;;3.30;0.50;;;;;;;10.93;58.52;99921.25;5164195;28;20053;-71
2023/01/04 11:29:36;;;;;;;2.73;0.77;;;;;;;10.97;59.03;99915.56;5143299;28;20061;-70
2023/01/04 11:32:38;;;;;;;2.65;0.60;;;;;;;11.01;59.09;99922.31;5143620;28;20186;-71
2023/01/04 11:35:41;;;;;;;4.22;0.70;;;;;;;11.08;58.85;99913.84;5156392;28;20062;-71
2023/01/04 11:38:32;;;;;;;2.97;0.63;;;;;;;10.26;60.65;99920.28;5142476;28;20073;-71
2023/01/04 11:41:23;;;;;;;2.15;0.50;;;;;;;10.76;59.96;99912.84;5146634;28;20054;-70
2023/01/04 11:44:18;;;;;;;4.15;0.75;;;;;;;11.46;58.18;99916.03;5132570;28;20518;-71
2023/01/04 11:47:18;;;;;;;4.22;0.70;;;;;;;11.24;58.13;99875.31;5143332;28;20066;-71
2023/01/04 11:50:41;;;;;;;1.88;0.63;;;;;;;10.92;59.28;99900.97;5143260;28;20061;-72
2023/01/04 11:53:35;;;;;;;4.03;0.60;;;;;;;11.20;58.80;99905.75;5122525;29;20219;-70
2023/01/04 11:56:28;;;;;;;2.25;0.60;;;;;;;11.36;58.37;99908.00;5133977;28;20641;-71
2023/01/04 11:59:20;;;;;;;1.90;0.53;;;;;;;11.43;58.21;99898.53;5141832;28;20059;-71
2023/01/04 12:02:20;;;;;;;0.88;0.60;;;;;;;11.31;58.01;99917.28;5142790;28;20286;-72
2023/01/04 12:05:31;;;;;;;2.25;0.55;;;;;;;11.09;59.35;99911.06;5142078;28;20119;-71
2023/01/04 12:08:27;;;;;;;3.33;0.80;;;;;;;11.65;57.82;99905.53;5141702;28;20331;-72
2023/01/04 12:11:40;;;;;;;2.35;0.50;;;;;;;11.44;58.33;99918.81;5141655;28;20055;-71
2023/01/04 12:14:36;;;;;;;3.58;1.00;;;;;;;11.33;59.34;99918.03;5137142;28;20085;-71
2023/01/04 12:17:47;;;;;;;2.10;0.50;;;;;;;11.25;59.75;99892.91;5139625;28;20055;-70
2023/01/04 12:20:37;;;;;;;2.78;0.65;;;;;;;11.23;60.76;99900.19;5142523;28;20148;-71
2023/01/04 12:23:28;;;;;;;4.82;0.80;;;;;;;11.59;59.78;99906.09;5142334;28;20429;-71
2023/01/04 12:26:19;;;;;;;3.00;0.60;;;;;;;11.25;61.22;99895.56;5141951;28;20038;-70
2023/01/04 12:29:21;;;;;;;4.43;0.50;;;;;;;11.09;62.23;99889.81;5139759;28;20082;-68
2023/01/04 12:32:11;;;;;;;2.15;0.82;;;;;;;11.25;60.63;99882.28;5141306;28;20070;-69
2023/01/04 12:35:01;;;;;;;1.67;0.65;;;;;;;11.12;61.92;99875.47;5141800;28;20109;-69
2023/01/04 12:37:51;;;;;;;3.35;0.75;;;;;;;11.08;61.61;99880.19;5142443;28;20479;-70
2023/01/04 12:40:44;;;;;;;7.50;1.17;;;;;;;11.18;61.86;99878.47;5140845;28;20811;-69
2023/01/04 12:43:37;;;;;;;3.03;0.68;;;;;;;10.99;61.15;99870.31;5153460;28;20058;-73
2023/01/04 12:49:59;;;;;;;3.60;0.70;;;;;;;10.64;62.24;99838.72;5142388;28;20113;-70
2023/01/04 12:52:51;;;;;;;1.50;0.57;;;;;;;10.78;62.25;99857.84;5141176;28;20059;-71
2023/01/04 12:56:02;;;;;;;2.92;0.80;;;;;;;10.91;61.89;99851.53;5141225;28;20049;-68
2023/01/04 12:59:06;;;;;;;1.80;0.73;;;;;;;11.04;61.50;99836.31;5141246;28;20050;-69
2023/01/04 13:02:26;;;;;;;3.38;0.80;;;;;;;10.98;61.42;99834.97;5141988;28;20189;-69
2023/01/04 13:05:16;;;;;;;4.95;0.70;;;;;;;11.23;61.74;99835.63;5142149;28;20074;-68
2023/01/04 13:08:27;;;;;;;2.22;0.45;;;;;;;11.36;60.87;99838.13;5142134;28;20083;-69
2023/01/04 13:11:47;;;;;;;3.10;0.80;;;;;;;11.38;60.34;99815.75;5141955;28;20078;-69
2023/01/04 13:14:48;;;;;;;1.05;0.60;;;;;;;11.58;59.93;99830.00;5141880;28;20140;-73
2023/01/04 13:17:39;;;;;;;2.45;0.70;;;;;;;11.42;59.90;99829.59;5141650;28;20058;-69
2023/01/04 13:20:30;;;;;;;1.67;0.68;;;;;;;11.55;60.20;99822.28;5140684;28;20059;-72
2023/01/04 13:23:21;;;;;;;1.60;0.60;;;;;;;11.38;60.94;99825.53;5141483;28;20133;-72
2023/01/04 13:26:38;;;;;;;0.75;0.60;;;;;;;11.69;59.63;99826.47;5140740;28;20047;-69
2023/01/04 13:29:32;;;;;;;3.70;0.50;;;;;;;11.89;59.50;99809.69;5139097;28;20110;-69
2023/01/04 13:32:41;;;;;;;1.05;0.50;;;;;;;11.71;58.91;99787.31;5140514;28;20105;-69
2023/01/04 13:36:08;;;;;;;2.15;0.60;;;;;;;11.92;59.68;99806.75;5141811;28;20069;-69
2023/01/04 13:38:58;;;;;;;5.20;0.70;;;;;;;11.90;59.08;99800.72;5141391;28;20046;-72
2023/01/04 13:41:49;;;;;;;1.83;0.60;;;;;;;11.74;59.15;99789.69;5140956;28;20137;-71
2023/01/04 13:44:48;;;;;;;1.02;0.50;;;;;;;11.52;60.37;99799.50;5140445;28;20484;-70
2023/01/04 13:48:03;;;;;;;2.17;0.80;;;;;;;11.77;59.94;99795.59;5145383;28;20081;-70
2023/01/04 13:51:12;;;;;;;1.55;0.70;;;;;;;11.67;59.57;99760.16;5145606;28;20062;-70
2023/01/04 13:54:05;;;;;;;1.00;0.60;;;;;;;12.06;59.07;99771.00;5145863;28;20393;-70
2023/01/04 13:57:07;;;;;;;0.77;0.47;;;;;;;12.06;59.30;99760.38;5144489;28;20053;-70
2023/01/04 13:59:57;;;;;;;1.80;0.52;;;;;;;11.98;59.34;99773.47;5144893;28;20066;-70
2023/01/04 14:03:08;;;;;;;0.82;0.52;;;;;;;12.25;58.31;99764.03;5145172;28;20097;-70
2023/01/04 14:06:08;;;;;;;3.10;0.60;;;;;;;12.37;58.24;99768.28;5143838;28;20093;-69
2023/01/04 14:09:10;;;;;;;4.72;0.50;;;;;;;12.29;58.42;99766.31;5145059;28;20065;-71
2023/01/04 14:12:12;;;;;;;2.65;0.47;;;;;;;11.80;59.92;99753.78;5141438;28;20055;-71
2023/01/04 14:15:23;;;;;;;1.45;0.55;;;;;;;12.34;58.46;99752.59;5144818;28;20057;-69
2023/01/04 14:18:30;;;;;;;3.00;0.57;;;;;;;12.38;58.08;99754.88;5144704;28;20185;-70
2023/01/04 14:21:33;;;;;;;1.77;0.60;;;;;;;12.30;58.52;99732.59;5125049;29;20239;-69
2023/01/04 14:24:31;;;;;;;0.60;0.50;;;;;;;11.64;60.65;99744.47;5128394;28;20632;-70
2023/01/04 14:27:41;;;;;;;1.60;0.68;;;;;;;12.08;59.33;99736.28;5143536;28;20087;-72
2023/01/04 14:30:32;;;;;;;1.85;0.43;;;;;;;11.84;60.04;99726.84;5143810;28;20073;-70